Time;durP1;ratioP1;P1;durP2;ratioP2;P2;SDS_P1;SDS_P2;PMS_P1;PMS_P2;Temp;Humidity;BMP_temperature;BMP_pressure;BME280_temperature;BME280_humidity;BME280_pressure;Samples;Min_cycle;Max_cycle;Signal;HPM_P1;HPM_P2
2021/05/21 00:00:27;;;;;;;1.25;0.50;;;;;;;12.05;57.85;98232.34;5006878;28;20022;-66
2021/05/21 00:02:52;;;;;;;0.90;0.47;;;;;;;12.18;58.37;98236.34;5006608;28;20053;-66
2021/05/21 00:05:17;;;;;;;0.30;0.30;;;;;;;12.15;57.44;98228.53;5008939;28;20030;-66
2021/05/21 00:07:43;;;;;;;4.10;0.68;;;;;;;12.15;56.84;98210.91;5026609;28;20089;-66
2021/05/21 00:10:09;;;;;;;0.30;0.30;;;;;;;12.11;56.98;98211.94;5026366;28;20190;-66
2021/05/21 00:12:34;;;;;;;2.22;0.52;;;;;;;12.15;57.21;98208.28;5026048;28;20049;-66
2021/05/21 00:15:00;;;;;;;1.42;0.70;;;;;;;12.08;58.10;98206.75;5026230;28;20028;-66
2021/05/21 00:17:25;;;;;;;0.95;0.50;;;;;;;12.12;58.13;98196.97;5009367;28;20026;-66
2021/05/21 00:19:50;;;;;;;2.95;0.55;;;;;;;12.21;58.35;98192.25;5006510;28;20240;-66
2021/05/21 00:22:16;;;;;;;0.80;0.40;;;;;;;12.20;57.85;98195.81;5006553;28;20022;-66
2021/05/21 00:24:41;;;;;;;2.53;0.55;;;;;;;12.15;56.76;98197.72;5005247;28;20026;-66
2021/05/21 00:27:07;;;;;;;2.03;0.50;;;;;;;12.15;57.60;98192.44;5019781;28;20056;-66
2021/05/21 00:29:32;;;;;;;1.15;0.60;;;;;;;12.34;60.32;98182.16;5025959;28;20018;-66
2021/05/21 00:31:58;;;;;;;11.35;0.50;;;;;;;12.22;57.57;98179.91;5025888;28;20029;-66
2021/05/21 00:34:23;;;;;;;1.02;0.50;;;;;;;12.22;58.76;98187.84;5025926;28;20021;-66
2021/05/21 00:36:48;;;;;;;2.63;0.60;;;;;;;12.28;56.82;98172.66;5014588;28;20022;-66
2021/05/21 00:39:14;;;;;;;2.70;0.80;;;;;;;12.21;57.70;98186.13;5006127;28;20122;-66
2021/05/21 00:41:39;;;;;;;1.17;0.60;;;;;;;12.22;56.38;98179.91;5006100;28;20028;-66
2021/05/21 00:44:05;;;;;;;1.02;0.50;;;;;;;12.20;57.00;98177.34;5006015;28;20265;-66
2021/05/21 00:46:30;;;;;;;0.82;0.47;;;;;;;12.38;56.58;98171.47;5014064;28;20028;-66
2021/05/21 00:48:56;;;;;;;2.85;0.60;;;;;;;12.35;55.86;98173.31;5025811;28;20022;-66
2021/05/21 00:51:21;;;;;;;3.95;0.50;;;;;;;12.49;59.24;98166.66;5025536;28;20208;-66
2021/05/21 00:53:50;;;;;;;0.65;0.40;;;;;;;12.45;55.90;98162.41;5025490;28;20023;-66
2021/05/21 00:56:15;;;;;;;1.70;0.60;;;;;;;12.60;58.29;98164.50;5005894;28;20022;-66
2021/05/21 00:58:41;;;;;;;1.27;0.70;;;;;;;12.58;55.74;98168.13;5005855;28;20044;-66
2021/05/21 01:01:06;;;;;;;1.33;0.40;;;;;;;12.59;55.44;98162.78;5005759;28;20220;-66
2021/05/21 01:03:36;;;;;;;2.47;0.50;;;;;;;12.62;55.43;98152.13;5022476;23;20057;-87
2021/05/21 01:06:02;;;;;;;0.77;0.40;;;;;;;12.55;55.34;98150.63;5024878;28;20088;-87
2021/05/21 01:08:27;;;;;;;0.80;0.47;;;;;;;12.62;55.72;98146.84;5025411;28;20197;-87
2021/05/21 01:10:52;;;;;;;2.38;0.55;;;;;;;12.59;55.60;98146.94;5024272;28;20026;-87
2021/05/21 01:13:18;;;;;;;4.30;0.65;;;;;;;12.65;54.81;98141.44;5015507;28;20026;-87
2021/05/21 01:15:44;;;;;;;0.90;0.52;;;;;;;12.57;55.35;98132.91;5004485;28;20029;-87
2021/05/21 01:18:11;;;;;;;0.80;0.40;;;;;;;12.51;56.09;98127.00;5004443;28;20026;-87
2021/05/21 01:20:37;;;;;;;1.67;0.60;;;;;;;12.52;56.28;98123.44;5004439;28;20049;-87
2021/05/21 01:23:04;;;;;;;1.80;0.60;;;;;;;12.59;55.29;98131.09;5007183;28;20190;-87
2021/05/21 01:25:31;;;;;;;0.88;0.40;;;;;;;12.53;54.80;98123.41;5023983;28;20252;-87
2021/05/21 01:27:57;;;;;;;1.98;0.57;;;;;;;12.46;55.21;98118.38;5022323;28;20085;-87
2021/05/21 01:30:23;;;;;;;0.70;0.40;;;;;;;12.43;55.73;98114.06;5023949;28;20048;-87
2021/05/21 01:32:49;;;;;;;0.57;0.40;;;;;;;12.22;56.90;98109.53;5023347;28;20328;-87
2021/05/21 01:35:16;;;;;;;0.60;0.50;;;;;;;12.21;56.06;98101.69;5024969;28;20026;-87
2021/05/21 01:37:43;;;;;;;0.80;0.40;;;;;;;12.17;56.29;98095.66;5023683;28;20354;-87
2021/05/21 01:40:11;;;;;;;2.85;0.60;;;;;;;12.09;57.43;98097.66;5024803;28;20045;-87
2021/05/21 01:42:36;;;;;;;2.78;0.50;;;;;;;11.94;58.40;98092.94;5023600;28;20025;-87
2021/05/21 01:45:02;;;;;;;1.40;0.40;;;;;;;11.82;57.47;98093.31;5005824;28;20037;-87
2021/05/21 01:47:28;;;;;;;3.42;0.70;;;;;;;11.69;58.14;98092.00;5003968;28;20025;-87
2021/05/21 01:49:53;;;;;;;1.08;0.50;;;;;;;11.71;59.53;98079.63;5005049;28;20026;-87
2021/05/21 01:52:19;;;;;;;2.25;0.60;;;;;;;11.59;58.47;98077.38;5003898;28;20225;-87
2021/05/21 01:54:45;;;;;;;1.58;0.32;;;;;;;11.54;58.75;98081.91;5019855;28;20137;-87
2021/05/21 01:57:10;;;;;;;1.83;0.50;;;;;;;11.66;58.01;98080.69;5023419;28;20092;-87
2021/05/21 01:59:36;;;;;;;3.80;0.73;;;;;;;11.60;57.51;98079.09;5023459;28;20032;-87
2021/05/21 02:02:03;;;;;;;0.63;0.43;;;;;;;11.60;57.90;98081.72;5015612;28;20029;-87
2021/05/21 02:04:34;;;;;;;0.98;0.40;;;;;;;11.50;58.32;98080.28;5003592;28;20053;-87
2021/05/21 02:07:00;;;;;;;1.85;0.55;;;;;;;11.58;59.65;98070.34;5003666;28;20033;-87
2021/05/21 02:09:27;;;;;;;1.45;0.40;;;;;;;11.50;57.77;98072.38;5003601;28;20026;-87
2021/05/21 02:11:52;;;;;;;0.68;0.50;;;;;;;11.45;59.30;98061.13;5003897;28;20076;-87
2021/05/21 02:14:18;;;;;;;3.42;0.50;;;;;;;11.46;58.23;98057.59;5003550;28;20030;-87
2021/05/21 02:16:44;;;;;;;0.88;0.40;;;;;;;11.49;58.66;98062.78;5003851;28;20034;-87
2021/05/21 02:19:10;;;;;;;1.70;0.65;;;;;;;11.43;58.62;98048.91;5003542;28;20036;-87
2021/05/21 02:21:36;;;;;;;1.33;0.40;;;;;;;11.40;58.67;98031.44;5007701;28;20018;-87
2021/05/21 02:24:06;;;;;;;4.43;0.70;;;;;;;11.35;58.99;98028.06;5023157;28;20193;-87
2021/05/21 02:26:32;;;;;;;1.83;0.60;;;;;;;11.29;59.37;98023.00;5023096;28;20044;-87
2021/05/21 02:28:58;;;;;;;0.68;0.40;;;;;;;11.34;59.29;98015.81;5023478;28;20026;-87
2021/05/21 02:31:23;;;;;;;1.95;0.50;;;;;;;11.40;58.88;98009.47;5021498;28;20032;-87
2021/05/21 02:33:49;;;;;;;3.03;0.50;;;;;;;11.35;58.52;98014.03;5003316;28;20026;-87
2021/05/21 02:36:14;;;;;;;0.32;0.30;;;;;;;11.38;59.46;98014.81;5010530;28;20030;-87
2021/05/21 02:38:40;;;;;;;0.47;0.40;;;;;;;11.34;58.86;98009.69;5025364;28;20025;-87
2021/05/21 02:41:05;;;;;;;1.52;0.40;;;;;;;11.30;59.34;98008.94;5026907;28;20328;-87
2021/05/21 02:43:30;;;;;;;1.67;0.70;;;;;;;11.42;59.71;98008.50;5026845;28;20026;-87
2021/05/21 02:45:56;;;;;;;1.08;0.50;;;;;;;11.55;58.53;97999.28;5026811;28;20030;-87
2021/05/21 02:48:21;;;;;;;2.45;0.52;;;;;;;11.55;58.51;97988.75;5021922;28;20018;-87
2021/05/21 02:50:47;;;;;;;1.60;0.50;;;;;;;11.61;57.51;97996.47;5007099;28;20444;-86
2021/05/21 02:53:12;;;;;;;3.50;0.80;;;;;;;11.72;59.82;98001.41;5008167;28;20033;-86
2021/05/21 02:55:37;;;;;;;1.27;0.60;;;;;;;11.68;57.74;97995.38;5008167;28;20033;-86
2021/05/21 02:58:03;;;;;;;1.42;0.50;;;;;;;11.71;58.68;97999.69;5006901;28;20037;-86
2021/05/21 03:00:29;;;;;;;4.43;0.60;;;;;;;11.69;57.48;97997.09;5025548;28;20060;-86
2021/05/21 03:02:55;;;;;;;2.75;0.50;;;;;;;11.79;57.57;97998.50;5026283;28;20033;-86
2021/05/21 03:05:22;;;;;;;0.38;0.38;;;;;;;11.75;57.34;97991.63;5026461;28;20021;-86
2021/05/21 03:07:55;;;;;;;1.33;0.60;;;;;;;11.71;57.01;97984.72;5027564;28;20029;-86
2021/05/21 03:10:22;;;;;;;3.70;0.70;;;;;;;11.82;57.45;97977.31;5023203;28;20236;-86
2021/05/21 03:12:48;;;;;;;1.38;0.73;;;;;;;11.72;56.92;97970.66;5026337;28;20227;-86
2021/05/21 03:15:14;;;;;;;1.35;0.50;;;;;;;11.71;57.32;97968.91;5026307;28;20053;-86
2021/05/21 03:17:39;;;;;;;1.33;0.55;;;;;;;11.66;58.43;97965.56;5026188;28;20093;-86
2021/05/21 03:20:05;;;;;;;1.75;0.55;;;;;;;11.57;57.47;97963.22;5011441;28;20278;-86
2021/05/21 03:22:31;;;;;;;0.45;0.40;;;;;;;11.61;58.27;97951.66;5007660;28;20092;-86
2021/05/21 03:25:01;;;;;;;2.78;0.43;;;;;;;11.54;58.94;97950.13;5006485;28;20097;-86
2021/05/21 03:27:26;;;;;;;1.95;0.60;;;;;;;11.58;58.84;97950.91;5006335;28;20022;-86
2021/05/21 03:29:52;;;;;;;6.68;0.68;;;;;;;11.57;58.00;97954.44;5019907;28;20064;-86
2021/05/21 03:32:17;;;;;;;5.15;0.63;;;;;;;11.59;58.12;97950.84;5026244;28;20096;-86
2021/05/21 03:34:43;;;;;;;2.40;0.60;;;;;;;11.66;59.03;97941.84;5027089;28;20030;-86
2021/05/21 03:37:08;;;;;;;2.05;0.70;;;;;;;11.62;58.25;97934.97;5026948;28;20216;-86
2021/05/21 03:39:34;;;;;;;3.38;0.50;;;;;;;11.78;57.62;97928.25;5016884;28;20343;-86
2021/05/21 03:41:59;;;;;;;1.60;0.55;;;;;;;11.77;58.68;97923.88;5006151;28;20225;-86
2021/05/21 03:44:25;;;;;;;1.02;0.93;;;;;;;11.99;59.60;97926.63;5006178;28;20057;-86
2021/05/21 03:46:50;;;;;;;1.80;0.65;;;;;;;11.79;58.08;97929.97;5006652;28;20049;-86
2021/05/21 03:49:16;;;;;;;1.05;0.55;;;;;;;11.78;58.37;97917.72;5013097;28;20026;-86
2021/05/21 03:51:42;;;;;;;1.55;0.57;;;;;;;11.74;58.31;97925.78;5026839;28;20022;-86
2021/05/21 03:54:08;;;;;;;1.25;0.63;;;;;;;11.87;60.80;97905.97;5025622;28;20045;-86
2021/05/21 03:56:33;;;;;;;1.83;0.35;;;;;;;12.01;58.18;97919.50;5025475;28;20216;-86
2021/05/21 03:59:00;;;;;;;1.48;0.57;;;;;;;12.04;58.40;97908.84;5020603;28;20033;-87
2021/05/21 04:01:25;;;;;;;2.70;0.80;;;;;;;12.02;58.44;97916.81;5006904;28;20034;-87
2021/05/21 04:03:51;;;;;;;0.50;0.43;;;;;;;12.08;58.20;97911.31;5005541;28;20341;-87
2021/05/21 04:06:16;;;;;;;0.50;0.40;;;;;;;11.99;58.40;97903.72;5006916;28;20088;-87
2021/05/21 04:08:42;;;;;;;2.05;0.50;;;;;;;12.06;57.92;97907.88;5007562;28;20026;-86
2021/05/21 04:11:07;;;;;;;3.85;0.75;;;;;;;12.14;58.43;97911.09;5019821;28;20068;-86
2021/05/21 04:13:33;;;;;;;2.83;0.77;;;;;;;12.15;57.74;97901.41;5012968;28;20026;-86
2021/05/21 04:15:58;;;;;;;1.25;0.60;;;;;;;12.21;60.14;97901.19;5018548;28;20314;-86
2021/05/21 04:18:24;;;;;;;1.48;0.70;;;;;;;12.20;58.11;97905.59;5019329;28;20022;-86
2021/05/21 04:20:49;;;;;;;0.68;0.60;;;;;;;12.25;58.52;97903.63;5018915;28;20321;-86
2021/05/21 04:23:15;;;;;;;2.05;0.68;;;;;;;12.28;58.19;97892.97;5010413;28;20022;-86
2021/05/21 04:25:40;;;;;;;2.33;0.50;;;;;;;12.34;60.00;97890.09;5006324;28;20045;-87
2021/05/21 04:28:06;;;;;;;1.67;0.60;;;;;;;12.30;58.90;97896.41;5004423;28;20228;-86
2021/05/21 04:30:31;;;;;;;1.60;0.50;;;;;;;12.37;59.00;97895.25;5004350;28;20278;-86
2021/05/21 04:32:57;;;;;;;1.35;0.55;;;;;;;12.33;59.02;97890.16;5006514;28;20061;-86
2021/05/21 04:35:22;;;;;;;0.80;0.50;;;;;;;12.31;60.35;97892.84;5007703;28;20191;-86
2021/05/21 04:37:48;;;;;;;1.58;0.57;;;;;;;12.35;59.46;97886.56;5007204;28;20116;-86
2021/05/21 04:40:14;;;;;;;1.95;0.45;;;;;;;12.32;59.63;97886.66;5013061;28;20030;-86
2021/05/21 04:42:40;;;;;;;1.55;0.63;;;;;;;12.34;59.58;97891.88;5020677;28;20080;-86
2021/05/21 04:45:07;;;;;;;2.70;0.70;;;;;;;12.35;60.63;97889.19;5024316;28;20038;-86
2021/05/21 04:47:33;;;;;;;0.70;0.50;;;;;;;12.38;60.43;97889.09;5024543;28;20049;-86
2021/05/21 04:49:58;;;;;;;0.60;0.55;;;;;;;12.46;58.83;97887.00;5025765;28;20386;-86
2021/05/21 04:52:24;;;;;;;2.40;0.77;;;;;;;12.67;61.27;97885.28;5025664;28;20045;-86
2021/05/21 04:54:49;;;;;;;0.93;0.60;;;;;;;12.65;60.06;97893.28;5024453;28;20044;-86
2021/05/21 04:57:15;;;;;;;1.75;0.63;;;;;;;12.80;58.44;97887.41;5023876;28;20093;-86
2021/05/21 04:59:40;;;;;;;1.15;0.60;;;;;;;12.72;59.81;97889.47;5025040;28;20344;-86
2021/05/21 05:02:05;;;;;;;1.48;0.40;;;;;;;12.70;59.91;97896.59;5024254;28;20056;-86
2021/05/21 05:04:32;;;;;;;1.38;0.60;;;;;;;12.67;60.44;97886.16;5025239;28;20049;-86
2021/05/21 05:06:57;;;;;;;0.80;0.50;;;;;;;12.71;60.11;97882.47;5024208;28;20194;-86
2021/05/21 05:09:23;;;;;;;1.45;0.63;;;;;;;12.80;59.79;97876.84;5024199;28;20081;-86
2021/05/21 05:11:48;;;;;;;0.70;0.50;;;;;;;12.96;59.15;97883.22;5025230;28;20321;-86
2021/05/21 05:14:14;;;;;;;0.63;0.50;;;;;;;12.95;59.43;97876.19;5024101;28;20068;-86
2021/05/21 05:16:40;;;;;;;1.45;0.60;;;;;;;13.02;58.43;97872.44;5024328;28;20328;-86
2021/05/21 05:19:06;;;;;;;2.20;0.68;;;;;;;13.14;58.74;97870.19;5023999;28;20092;-86
2021/05/21 05:21:33;;;;;;;1.52;0.57;;;;;;;13.24;58.27;97861.81;5023926;28;20029;-86
2021/05/21 05:24:01;;;;;;;0.98;0.47;;;;;;;13.30;59.08;97860.69;5023900;28;20347;-86
2021/05/21 05:26:27;;;;;;;1.95;0.70;;;;;;;13.20;58.41;97843.53;5023778;28;20320;-86
2021/05/21 05:28:52;;;;;;;2.38;0.73;;;;;;;13.35;58.76;97853.44;5023811;28;20028;-86
2021/05/21 05:31:19;;;;;;;2.00;0.40;;;;;;;13.37;59.09;97841.00;5024908;28;20034;-86
2021/05/21 05:33:45;;;;;;;1.00;0.60;;;;;;;13.51;58.95;97843.94;5024860;28;20033;-86
2021/05/21 05:36:11;;;;;;;3.78;1.02;;;;;;;13.50;58.93;97847.47;5023693;28;20064;-86
2021/05/21 05:38:36;;;;;;;1.45;0.40;;;;;;;13.51;59.20;97847.41;5024810;28;20033;-86
2021/05/21 05:41:02;;;;;;;1.40;0.68;;;;;;;13.61;57.89;97839.97;5023888;28;20029;-86
2021/05/21 05:43:27;;;;;;;1.52;0.68;;;;;;;13.68;57.49;97841.41;5023588;28;20026;-86
2021/05/21 05:45:53;;;;;;;1.65;0.60;;;;;;;13.72;57.67;97848.25;5023553;28;20383;-86
2021/05/21 05:48:19;;;;;;;0.90;0.60;;;;;;;13.74;58.14;97841.13;5023481;28;20022;-86
2021/05/21 05:50:49;;;;;;;0.95;0.52;;;;;;;13.69;58.76;97843.97;5023467;28;20017;-86
2021/05/21 05:53:16;;;;;;;2.58;0.70;;;;;;;13.77;58.51;97839.22;5024677;28;20029;-86
2021/05/21 05:55:41;;;;;;;1.58;0.80;;;;;;;13.86;58.96;97851.19;5023392;28;20030;-86
2021/05/21 05:58:08;;;;;;;1.10;0.45;;;;;;;13.96;57.42;97836.59;5023336;28;20064;-86
2021/05/21 06:00:34;;;;;;;2.40;1.05;;;;;;;14.11;56.79;97841.22;5023262;28;20045;-86
2021/05/21 06:03:05;;;;;;;0.93;0.57;;;;;;;14.17;57.41;97840.91;5023022;28;20137;-86
2021/05/21 06:05:32;;;;;;;1.70;1.00;;;;;;;14.19;57.21;97828.47;5023305;28;20029;-86
2021/05/21 06:07:57;;;;;;;1.67;0.50;;;;;;;14.25;57.75;97844.09;5023135;28;20284;-86
2021/05/21 06:10:23;;;;;;;1.80;0.80;;;;;;;14.35;57.37;97840.09;5024104;28;20025;-86
2021/05/21 06:12:48;;;;;;;1.05;0.45;;;;;;;14.39;56.32;97831.06;5023150;28;20072;-86
2021/05/21 06:15:14;;;;;;;2.92;0.60;;;;;;;14.46;56.75;97843.09;5023172;28;20340;-86
2021/05/21 06:17:39;;;;;;;2.03;0.57;;;;;;;14.57;56.86;97838.16;5023146;28;20048;-86
2021/05/21 06:20:05;;;;;;;4.60;0.70;;;;;;;14.61;56.65;97837.06;5024169;28;20305;-86
2021/05/21 06:22:31;;;;;;;1.75;0.70;;;;;;;14.66;56.97;97835.94;5023045;28;20025;-86
2021/05/21 06:25:05;;;;;;;2.20;0.70;;;;;;;14.71;55.45;97843.63;5024443;28;20030;-86
2021/05/21 06:27:30;;;;;;;1.40;0.70;;;;;;;14.51;57.34;97846.38;5023009;28;20021;-86
2021/05/21 06:29:56;;;;;;;3.35;0.75;;;;;;;14.52;57.30;97848.09;5022973;28;20224;-86
2021/05/21 06:32:22;;;;;;;4.43;1.05;;;;;;;14.58;57.15;97858.38;5022943;28;20022;-86
2021/05/21 06:34:47;;;;;;;2.40;0.77;;;;;;;14.65;55.75;97860.69;5022933;28;20022;-86
2021/05/21 06:37:13;;;;;;;2.45;0.80;;;;;;;14.54;56.14;97868.28;5022982;28;20018;-86
2021/05/21 06:39:38;;;;;;;1.38;0.60;;;;;;;14.54;57.54;97870.94;5022930;28;20040;-86
2021/05/21 06:42:04;;;;;;;2.13;0.45;;;;;;;14.62;58.24;97865.28;5024050;28;20045;-86
2021/05/21 06:44:29;;;;;;;3.83;1.13;;;;;;;14.59;56.19;97870.72;5022951;28;20018;-86
2021/05/21 06:46:58;;;;;;;3.03;0.60;;;;;;;14.55;57.65;97869.13;5022749;28;20018;-86
2021/05/21 06:49:24;;;;;;;0.85;0.47;;;;;;;14.40;56.71;97869.88;5022803;28;20025;-86
2021/05/21 06:51:49;;;;;;;3.90;0.63;;;;;;;14.36;57.81;97873.56;5022739;28;20096;-86
2021/05/21 06:54:15;;;;;;;1.60;0.60;;;;;;;14.27;58.06;97874.00;5023897;28;20216;-86
2021/05/21 06:56:40;;;;;;;1.70;0.50;;;;;;;14.23;56.35;97877.69;5022769;28;20097;-86
2021/05/21 06:59:06;;;;;;;3.58;0.55;;;;;;;14.24;58.01;97872.34;5022721;28;20257;-86
2021/05/21 07:01:31;;;;;;;2.55;0.73;;;;;;;14.30;57.20;97865.94;5022704;28;20022;-86
2021/05/21 07:03:57;;;;;;;2.05;0.50;;;;;;;14.23;56.85;97877.69;5023575;28;20046;-86
2021/05/21 07:06:23;;;;;;;2.30;0.70;;;;;;;14.24;56.60;97874.16;5022581;28;20072;-86
2021/05/21 07:08:50;;;;;;;2.10;0.50;;;;;;;14.31;57.40;97865.00;5022636;28;20026;-86
2021/05/21 07:11:16;;;;;;;1.77;0.60;;;;;;;14.31;58.62;97870.28;5022607;28;20026;-86
2021/05/21 07:13:41;;;;;;;1.83;0.70;;;;;;;14.38;58.77;97872.59;5022645;28;20018;-86
2021/05/21 07:16:06;;;;;;;1.10;0.55;;;;;;;14.32;58.13;97874.63;5022553;28;20018;-86
2021/05/21 07:18:32;;;;;;;4.00;0.63;;;;;;;14.30;57.82;97880.00;5022566;28;20048;-86
2021/05/21 07:21:01;;;;;;;1.15;0.52;;;;;;;14.35;57.91;97887.75;5024185;28;20028;-86
2021/05/21 07:23:26;;;;;;;1.35;0.68;;;;;;;14.28;58.28;97883.66;5027300;28;20021;-86
2021/05/21 07:25:52;;;;;;;3.55;0.73;;;;;;;14.36;57.38;97876.22;5026076;28;20348;-86
2021/05/21 07:28:17;;;;;;;3.47;0.50;;;;;;;14.40;57.10;97869.88;5025972;28;20029;-86
2021/05/21 07:30:42;;;;;;;7.07;0.85;;;;;;;14.46;57.52;97875.72;5027167;28;20026;-86
2021/05/21 07:33:08;;;;;;;1.70;0.60;;;;;;;14.49;57.91;97874.75;5026251;28;20060;-86
2021/05/21 07:35:33;;;;;;;3.10;0.80;;;;;;;14.58;57.34;97864.56;5027073;28;20022;-86
2021/05/21 07:37:59;;;;;;;3.58;0.90;;;;;;;14.58;57.50;97853.97;5025862;28;20018;-86
2021/05/21 07:40:25;;;;;;;1.75;0.75;;;;;;;14.64;58.85;97863.41;5025808;28;20316;-86
2021/05/21 07:42:52;;;;;;;2.72;0.60;;;;;;;14.55;58.51;97863.81;5025792;28;20022;-86
2021/05/21 07:45:17;;;;;;;1.48;0.60;;;;;;;14.52;58.25;97872.78;5025768;28;20220;-86
2021/05/21 07:47:43;;;;;;;5.28;2.03;;;;;;;14.55;58.85;97870.00;5026012;28;20049;-86
2021/05/21 07:50:09;;;;;;;1.85;0.82;;;;;;;14.54;59.14;97872.72;5026790;28;20367;-86
2021/05/21 07:52:34;;;;;;;1.55;0.60;;;;;;;14.52;58.66;97869.28;5025549;28;20018;-86
2021/05/21 07:55:01;;;;;;;3.55;0.52;;;;;;;14.46;58.83;97864.28;5026692;28;20228;-86
2021/05/21 07:57:27;;;;;;;1.70;0.70;;;;;;;14.40;59.30;97859.28;5026637;28;20017;-86
2021/05/21 07:59:52;;;;;;;3.45;0.82;;;;;;;14.40;59.58;97861.94;5026615;28;20194;-86
2021/05/21 08:02:18;;;;;;;3.05;0.70;;;;;;;14.34;61.45;97848.97;5025344;28;20072;-86
2021/05/21 08:04:43;;;;;;;2.58;0.85;;;;;;;14.37;59.57;97846.19;5026373;28;20113;-86
2021/05/21 08:07:09;;;;;;;3.08;0.70;;;;;;;14.30;61.23;97842.09;5025278;28;20025;-86
2021/05/21 08:09:39;;;;;;;2.58;0.75;;;;;;;14.32;60.50;97845.53;5025345;28;20021;-86
2021/05/21 08:12:06;;;;;;;1.45;0.60;;;;;;;14.27;60.51;97844.91;5026498;28;20029;-86
2021/05/21 08:14:31;;;;;;;0.77;0.63;;;;;;;14.22;61.42;97830.97;5026352;28;20029;-86
2021/05/21 08:16:57;;;;;;;3.33;0.50;;;;;;;14.27;60.76;97842.25;5025152;28;20212;-86
2021/05/21 08:19:22;;;;;;;2.92;0.60;;;;;;;14.31;61.81;97854.41;5025138;28;20030;-86
2021/05/21 08:21:47;;;;;;;4.00;0.63;;;;;;;14.31;60.62;97865.00;5026210;28;20343;-86
2021/05/21 08:24:13;;;;;;;3.50;0.80;;;;;;;14.25;61.28;97867.91;5025000;28;20033;-86
2021/05/21 08:26:38;;;;;;;2.80;0.80;;;;;;;14.25;61.51;97871.44;5024870;28;20036;-86
2021/05/21 08:29:04;;;;;;;1.27;0.60;;;;;;;14.21;60.98;97880.38;5024959;28;20029;-86
2021/05/21 08:31:29;;;;;;;4.78;1.45;;;;;;;14.11;62.50;97878.25;5024894;28;20021;-86
2021/05/21 08:33:55;;;;;;;2.25;0.60;;;;;;;14.10;62.30;97889.75;5024843;28;20072;-86
2021/05/21 08:36:21;;;;;;;2.63;0.80;;;;;;;14.00;62.70;97893.75;5024820;28;20018;-86
2021/05/21 08:38:48;;;;;;;0.93;0.50;;;;;;;13.99;62.88;97892.03;5024702;28;20053;-86
2021/05/21 08:41:25;;;;;;;4.07;0.70;;;;;;;14.00;62.73;97906.97;5024738;28;20022;-86
2021/05/21 08:43:51;;;;;;;1.10;0.68;;;;;;;14.01;62.62;97904.25;5025796;28;20028;-86
2021/05/21 08:46:19;;;;;;;2.42;0.80;;;;;;;13.94;62.98;97901.94;5025661;28;20068;-86
2021/05/21 08:48:45;;;;;;;1.30;0.68;;;;;;;14.06;62.95;97901.41;5024599;28;20025;-86
2021/05/21 08:51:13;;;;;;;1.25;0.70;;;;;;;14.02;62.85;97899.81;5024515;28;20033;-86
2021/05/21 08:53:39;;;;;;;3.25;0.60;;;;;;;14.14;62.28;97909.88;5025647;28;20029;-86
2021/05/21 08:56:06;;;;;;;1.60;0.55;;;;;;;14.25;63.35;97897.91;5024387;28;20080;-86
2021/05/21 08:58:32;;;;;;;1.75;0.57;;;;;;;14.31;63.32;97886.16;5025546;28;20032;-86
2021/05/21 09:00:58;;;;;;;5.07;1.00;;;;;;;14.44;62.72;97890.84;5025422;28;20025;-86
2021/05/21 09:03:29;;;;;;;1.30;0.63;;;;;;;14.66;62.25;97893.31;5025214;28;20116;-86
2021/05/21 09:06:18;;;;;;;2.47;0.80;;;;;;;14.58;62.83;97890.16;5025412;28;20052;-86
2021/05/21 09:08:49;;;;;;;1.38;0.63;;;;;;;14.70;61.16;97902.84;5024235;28;20317;-86
2021/05/21 09:11:34;;;;;;;3.72;0.73;;;;;;;14.63;60.76;97898.78;5025292;28;20022;-86
2021/05/21 09:14:18;;;;;;;3.53;1.02;;;;;;;14.90;63.27;97905.38;5024104;28;20120;-86
2021/05/21 09:16:45;;;;;;;2.28;0.77;;;;;;;14.96;60.77;97902.44;5024108;28;20380;-86
2021/05/21 09:19:13;;;;;;;1.85;0.70;;;;;;;15.11;60.82;97904.38;5025137;28;20018;-86
2021/05/21 09:21:55;;;;;;;3.33;0.85;;;;;;;15.11;60.99;97896.41;5023951;28;20121;-86
2021/05/21 09:24:28;;;;;;;3.33;0.93;;;;;;;15.13;60.81;97902.50;5023984;28;20096;-86
2021/05/21 09:26:56;;;;;;;2.00;0.82;;;;;;;14.87;60.51;97902.88;5025264;28;20026;-86
2021/05/21 09:29:47;;;;;;;1.25;0.57;;;;;;;15.02;60.88;97910.09;5023820;28;20228;-86
2021/05/21 09:32:18;;;;;;;1.50;0.68;;;;;;;15.53;60.85;97898.78;5024184;28;20268;-86
2021/05/21 09:34:47;;;;;;;2.67;1.00;;;;;;;15.87;59.11;97894.31;5023750;28;20030;-86
2021/05/21 09:37:24;;;;;;;2.53;0.68;;;;;;;15.95;58.18;97892.09;5023681;28;20101;-86
2021/05/21 09:40:13;;;;;;;1.73;0.82;;;;;;;15.83;60.47;97882.13;5023694;28;20032;-86
2021/05/21 09:42:55;;;;;;;1.33;0.63;;;;;;;15.74;58.71;97887.91;5024789;28;20216;-86
2021/05/21 09:45:25;;;;;;;4.57;0.90;;;;;;;15.86;59.24;97889.94;5024318;28;20053;-86
2021/05/21 09:47:56;;;;;;;5.65;0.95;;;;;;;15.83;58.98;97883.91;5023407;28;20073;-86
2021/05/21 09:50:34;;;;;;;6.32;0.88;;;;;;;15.78;58.48;97883.28;5023519;28;20312;-86
2021/05/21 09:53:08;;;;;;;3.97;0.98;;;;;;;15.77;60.49;97876.28;5023450;28;20201;-86
2021/05/21 09:55:37;;;;;;;3.00;0.80;;;;;;;15.86;59.82;97887.28;5023473;28;20029;-86
2021/05/21 09:58:03;;;;;;;5.65;0.90;;;;;;;16.04;59.70;97885.47;5023334;28;20029;-86
2021/05/21 10:00:28;;;;;;;4.95;0.90;;;;;;;16.28;59.45;97871.72;5023380;28;20097;-86
2021/05/21 10:02:56;;;;;;;3.35;1.08;;;;;;;16.83;59.34;97866.91;5023068;28;20057;-86
2021/05/21 10:05:21;;;;;;;2.67;0.50;;;;;;;16.90;58.37;97869.13;5023266;28;20025;-86
2021/05/21 10:07:52;;;;;;;2.17;0.93;;;;;;;17.31;57.06;97874.75;5024302;28;20028;-86
2021/05/21 10:10:17;;;;;;;3.28;0.77;;;;;;;17.58;57.17;97872.28;5023259;28;20048;-86
2021/05/21 10:12:44;;;;;;;4.03;0.82;;;;;;;17.26;56.10;97876.81;5023135;28;20387;-86
2021/05/21 10:15:10;;;;;;;1.83;0.82;;;;;;;17.31;55.03;97873.91;5023173;28;20017;-86
2021/05/21 10:17:38;;;;;;;2.80;0.93;;;;;;;16.82;56.80;97875.81;5024190;28;20028;-86
2021/05/21 10:20:04;;;;;;;2.90;0.90;;;;;;;16.68;57.84;97873.09;5023063;28;20026;-86
2021/05/21 10:22:37;;;;;;;3.05;0.75;;;;;;;17.01;57.41;97888.00;5023074;28;20032;-86
2021/05/21 10:25:28;;;;;;;3.42;0.80;;;;;;;17.83;56.17;97888.53;5023129;28;20056;-86
2021/05/21 10:28:32;;;;;;;3.03;0.73;;;;;;;17.65;55.30;97876.34;5016687;28;20049;-86
2021/05/21 10:31:14;;;;;;;3.30;0.73;;;;;;;18.20;54.45;97877.34;5020196;28;20036;-86
2021/05/21 10:33:43;;;;;;;3.08;0.90;;;;;;;17.94;54.24;97865.63;5023012;28;20030;-86
2021/05/21 10:36:23;;;;;;;3.20;0.80;;;;;;;17.53;55.09;97871.72;5012017;28;20028;-86
2021/05/21 10:39:01;;;;;;;3.97;1.13;;;;;;;18.02;53.88;97878.47;5018115;28;20244;-86
2021/05/21 10:41:27;;;;;;;4.97;1.13;;;;;;;18.07;52.13;97882.56;5011372;28;20032;-87
2021/05/21 10:43:54;;;;;;;4.47;0.90;;;;;;;18.20;52.92;97866.72;5017655;28;20022;-87
2021/05/21 10:46:22;;;;;;;4.47;0.85;;;;;;;17.91;51.29;97849.00;5030930;28;20339;-87
2021/05/21 10:48:54;;;;;;;3.85;1.17;;;;;;;17.81;53.27;97869.16;5015969;28;20060;-87
2021/05/21 10:51:20;;;;;;;5.47;1.45;;;;;;;17.68;53.54;97868.16;5017209;28;20036;-87
2021/05/21 10:53:47;;;;;;;5.55;1.00;;;;;;;17.56;54.14;97874.22;5016934;28;20018;-87
2021/05/21 10:56:15;;;;;;;3.90;0.95;;;;;;;17.34;55.73;97874.59;5021060;28;20133;-87
2021/05/21 10:58:45;;;;;;;5.50;1.20;;;;;;;17.13;55.93;97867.84;5018384;28;20093;-87
2021/05/21 11:01:18;;;;;;;2.60;0.80;;;;;;;17.19;55.06;97859.50;5017603;28;20020;-87
2021/05/21 11:03:56;;;;;;;7.07;1.50;;;;;;;17.03;55.27;97869.31;5012187;28;20046;-87
2021/05/21 11:06:23;;;;;;;4.90;0.95;;;;;;;17.15;54.39;97869.44;5013293;28;20041;-86
2021/05/21 11:08:48;;;;;;;5.70;0.95;;;;;;;17.46;54.73;97886.34;5020289;28;20343;-87
2021/05/21 11:11:14;;;;;;;4.30;1.23;;;;;;;17.57;55.72;97891.88;5014030;28;20018;-87
2021/05/21 11:13:41;;;;;;;6.57;1.45;;;;;;;17.72;55.77;97885.66;5020697;28;20106;-87
2021/05/21 11:16:13;;;;;;;3.15;0.90;;;;;;;17.51;52.84;97905.53;5019741;28;20030;-87
2021/05/21 11:18:48;;;;;;;6.38;1.10;;;;;;;17.10;53.12;97891.94;5009564;28;20045;-87
2021/05/21 11:21:18;;;;;;;4.40;0.98;;;;;;;16.75;53.93;97883.31;5013730;28;20033;-87
2021/05/21 11:23:45;;;;;;;4.20;1.15;;;;;;;16.66;53.85;97897.09;5011912;28;20024;-87
2021/05/21 11:26:14;;;;;;;6.18;1.08;;;;;;;16.53;54.91;97900.50;5011462;28;20022;-86
2021/05/21 11:28:40;;;;;;;11.15;1.52;;;;;;;16.54;55.45;97899.56;5015547;28;20018;-86
2021/05/21 11:31:31;;;;;;;5.75;1.20;;;;;;;16.35;54.28;97886.38;5020112;28;20372;-87
2021/05/21 11:33:59;;;;;;;6.25;1.13;;;;;;;16.61;54.12;97883.19;5024516;28;20080;-87